Time;durP1;ratioP1;P1;durP2;ratioP2;P2;SDS_P1;SDS_P2;PMS_P1;PMS_P2;Temp;Humidity;BMP_temperature;BMP_pressure;BME280_temperature;BME280_humidity;BME280_pressure;Samples;Min_cycle;Max_cycle;Signal;HPM_P1;HPM_P2
2023/03/23 00:02:14;;;;;;;61.70;29.97;;;;;;;6.66;100.00;95134.91;5016746;28;20233;-74
2023/03/23 00:04:39;;;;;;;64.40;30.30;;;;;;;6.55;100.00;95138.69;5008640;28;20703;-74
2023/03/23 00:07:05;;;;;;;60.63;29.13;;;;;;;6.37;100.00;95135.53;5018722;28;20230;-74
2023/03/23 00:09:34;;;;;;;63.87;29.03;;;;;;;6.41;100.00;95134.19;5031372;28;20232;-73
2023/03/23 00:12:04;;;;;;;62.63;28.83;;;;;;;6.17;100.00;95134.28;5006388;28;20241;-74
2023/03/23 00:14:40;;;;;;;68.57;30.80;;;;;;;6.26;100.00;95132.50;5008803;28;20321;-74
2023/03/23 00:17:09;;;;;;;66.20;29.97;;;;;;;6.14;100.00;95136.44;5009659;28;20292;-75
2023/03/23 00:19:45;;;;;;;67.37;30.60;;;;;;;6.23;100.00;95133.63;5023639;28;20231;-74
2023/03/23 00:22:16;;;;;;;65.60;30.00;;;;;;;6.25;100.00;95136.88;5016841;28;20237;-74
2023/03/23 00:24:42;;;;;;;64.90;30.03;;;;;;;6.43;100.00;95139.22;5017427;28;20221;-74
2023/03/23 00:27:08;;;;;;;65.07;30.13;;;;;;;6.33;100.00;95139.41;5035166;28;20902;-74
2023/03/23 00:29:34;;;;;;;61.67;29.67;;;;;;;6.07;100.00;95146.66;5017192;28;20774;-74
2023/03/23 00:31:59;;;;;;;62.73;30.20;;;;;;;6.11;100.00;95148.75;5031169;28;20245;-74
2023/03/23 00:34:25;;;;;;;61.90;30.50;;;;;;;6.07;100.00;95149.25;5026252;28;20227;-74
2023/03/23 00:36:56;;;;;;;65.83;30.37;;;;;;;5.97;100.00;95148.66;4991819;28;20292;-75
2023/03/23 00:39:24;;;;;;;59.07;28.50;;;;;;;5.98;100.00;95152.84;5013061;28;20247;-74
2023/03/23 00:41:49;;;;;;;61.87;29.43;;;;;;;6.01;100.00;95155.94;5016833;28;20226;-74
2023/03/23 00:44:16;;;;;;;65.47;30.43;;;;;;;6.15;100.00;95153.63;5033737;28;20720;-74
2023/03/23 00:46:46;;;;;;;70.70;31.07;;;;;;;6.16;100.00;95157.84;5021328;28;20238;-74
2023/03/23 00:49:16;;;;;;;84.20;37.90;;;;;;;6.05;100.00;95156.41;5012849;28;20362;-74
2023/03/23 00:51:42;;;;;;;90.37;38.00;;;;;;;5.93;100.00;95161.13;5031033;28;20237;-74
2023/03/23 00:54:08;;;;;;;92.30;39.90;;;;;;;6.07;100.00;95160.47;5032369;28;20316;-74
2023/03/23 00:56:33;;;;;;;97.30;39.37;;;;;;;6.08;100.00;95158.69;5014994;28;20269;-74
2023/03/23 00:59:00;;;;;;;110.23;42.77;;;;;;;6.02;100.00;95161.91;5005498;28;20254;-74
2023/03/23 01:01:26;;;;;;;109.47;41.23;;;;;;;6.08;100.00;95161.28;5011043;28;20234;-74
2023/03/23 01:03:53;;;;;;;107.50;41.90;;;;;;;6.12;100.00;95170.34;5008497;28;20225;-74
2023/03/23 01:06:18;;;;;;;106.13;40.50;;;;;;;6.21;100.00;95171.16;5003634;28;20725;-74
2023/03/23 01:08:46;;;;;;;96.70;39.20;;;;;;;6.28;100.00;95159.91;5017709;28;20210;-73
2023/03/23 01:11:13;;;;;;;98.70;39.90;;;;;;;6.32;100.00;95163.81;5024909;28;20229;-74
2023/03/23 01:13:40;;;;;;;109.93;39.30;;;;;;;6.35;100.00;95168.69;4996418;28;20225;-74
2023/03/23 01:16:06;;;;;;;112.77;39.70;;;;;;;6.36;100.00;95166.88;5012933;28;20249;-74
2023/03/23 01:18:31;;;;;;;97.60;36.27;;;;;;;6.39;100.00;95156.97;5006939;28;20368;-74
2023/03/23 01:20:57;;;;;;;88.60;34.67;;;;;;;6.37;100.00;95158.91;5014928;28;20230;-74
2023/03/23 01:23:23;;;;;;;89.67;32.70;;;;;;;6.38;100.00;95149.31;5030490;28;20303;-74
2023/03/23 01:25:49;;;;;;;87.70;31.47;;;;;;;6.36;100.00;95154.69;5012523;28;20250;-74
2023/03/23 01:28:14;;;;;;;75.63;31.20;;;;;;;6.49;100.00;95149.78;5029520;28;20527;-74
2023/03/23 01:30:40;;;;;;;99.53;31.60;;;;;;;6.44;100.00;95148.66;5008121;28;20283;-74
2023/03/23 01:33:05;;;;;;;69.37;29.93;;;;;;;6.47;100.00;95143.91;5029959;28;20236;-74
2023/03/23 01:35:31;;;;;;;74.20;31.07;;;;;;;6.49;100.00;95141.97;5017254;28;20257;-74
2023/03/23 01:37:56;;;;;;;75.80;30.83;;;;;;;6.51;100.00;95137.41;5033069;28;20264;-74
2023/03/23 01:40:22;;;;;;;70.77;29.67;;;;;;;6.51;100.00;95142.63;5021396;28;20249;-74
2023/03/23 01:42:47;;;;;;;70.07;30.07;;;;;;;6.41;100.00;95136.81;5011137;28;20221;-74
2023/03/23 01:45:19;;;;;;;66.97;28.90;;;;;;;6.18;100.00;95135.91;5001750;28;20737;-73
2023/03/23 01:48:00;;;;;;;72.00;30.10;;;;;;;6.26;100.00;95135.09;5032558;28;20252;-74
2023/03/23 01:50:26;;;;;;;65.80;28.90;;;;;;;6.37;100.00;95139.91;5033793;28;20286;-75
2023/03/23 01:52:52;;;;;;;63.93;28.47;;;;;;;6.42;100.00;95135.84;5028021;28;20326;-74
2023/03/23 01:55:18;;;;;;;61.73;28.23;;;;;;;6.45;100.00;95125.06;5033227;28;20226;-75
2023/03/23 01:57:44;;;;;;;64.70;27.93;;;;;;;6.45;100.00;95126.91;5001071;28;20794;-74
2023/03/23 02:00:16;;;;;;;64.23;28.57;;;;;;;6.59;100.00;95124.34;5004080;28;20222;-74
2023/03/23 02:02:43;;;;;;;62.73;28.67;;;;;;;6.52;100.00;95128.63;5021058;28;20236;-74
2023/03/23 02:05:13;;;;;;;66.07;28.17;;;;;;;6.56;100.00;95124.72;5013604;28;20217;-74
2023/03/23 02:07:39;;;;;;;62.27;28.17;;;;;;;6.66;100.00;95127.91;5017988;28;20315;-74
2023/03/23 02:10:05;;;;;;;64.80;28.63;;;;;;;6.54;100.00;95131.84;5020134;28;20213;-74
2023/03/23 02:12:30;;;;;;;64.23;28.77;;;;;;;6.17;100.00;95129.09;5005543;28;20244;-74
2023/03/23 02:14:56;;;;;;;59.43;27.53;;;;;;;6.22;100.00;95141.56;5033039;28;20217;-73
2023/03/23 02:17:24;;;;;;;62.60;27.50;;;;;;;6.21;100.00;95135.56;5011436;28;20230;-73
2023/03/23 02:20:10;;;;;;;60.70;28.20;;;;;;;6.18;100.00;95133.31;5035693;28;20225;-74
2023/03/23 02:22:57;;;;;;;60.77;27.07;;;;;;;6.24;100.00;95137.03;5020838;28;20229;-74
2023/03/23 02:25:32;;;;;;;65.67;28.93;;;;;;;6.37;100.00;95137.31;5029965;28;20236;-74
2023/03/23 02:28:10;;;;;;;67.57;29.30;;;;;;;6.37;100.00;95132.94;5030662;28;20783;-74
2023/03/23 02:30:42;;;;;;;68.90;29.63;;;;;;;6.43;100.00;95134.84;5031285;28;20287;-74
2023/03/23 02:33:22;;;;;;;70.37;30.13;;;;;;;6.33;100.00;95131.63;5030372;28;20233;-74
2023/03/23 02:36:04;;;;;;;67.90;29.10;;;;;;;6.16;100.00;95137.06;5039092;28;20329;-74
2023/03/23 02:38:50;;;;;;;66.77;29.50;;;;;;;6.16;100.00;95137.88;5017357;28;20312;-75
2023/03/23 02:41:17;;;;;;;62.67;28.80;;;;;;;6.10;100.00;95141.94;5031214;28;20233;-73
2023/03/23 02:43:43;;;;;;;63.93;29.83;;;;;;;5.85;100.00;95139.56;5023417;28;20360;-74
2023/03/23 02:46:09;;;;;;;67.53;29.37;;;;;;;5.81;100.00;95141.66;5022581;28;20257;-74
2023/03/23 02:48:35;;;;;;;64.13;28.87;;;;;;;5.80;100.00;95150.44;5010193;28;20264;-73
2023/03/23 02:51:00;;;;;;;62.40;28.77;;;;;;;5.76;100.00;95153.50;5007995;28;20901;-74
2023/03/23 02:53:26;;;;;;;65.13;28.43;;;;;;;5.65;100.00;95157.25;5021580;28;20234;-74
2023/03/23 02:55:52;;;;;;;53.93;24.17;;;;;;;5.70;100.00;95156.75;5016171;28;20248;-74
2023/03/23 02:58:18;;;;;;;46.50;21.80;;;;;;;5.74;100.00;95165.84;5009229;28;20820;-73
2023/03/23 03:00:44;;;;;;;47.17;21.60;;;;;;;5.58;100.00;95160.66;5001776;28;20225;-74
2023/03/23 03:03:14;;;;;;;41.67;19.73;;;;;;;5.66;100.00;95173.66;5022859;28;20234;-74
2023/03/23 03:05:42;;;;;;;37.57;17.77;;;;;;;5.70;100.00;95167.16;5019220;28;20233;-74
2023/03/23 03:08:17;;;;;;;32.20;16.17;;;;;;;5.52;100.00;95180.28;5033763;28;20248;-74
2023/03/23 03:10:43;;;;;;;33.00;15.23;;;;;;;5.50;100.00;95179.63;5034534;28;20232;-74
2023/03/23 03:13:18;;;;;;;25.80;13.87;;;;;;;5.55;100.00;95179.97;5034345;28;20256;-74
2023/03/23 03:16:06;;;;;;;26.97;14.20;;;;;;;5.66;100.00;95186.63;5004828;28;20234;-74
2023/03/23 03:18:56;;;;;;;26.80;14.13;;;;;;;5.71;100.00;95179.94;5022619;28;20627;-74
2023/03/23 03:21:25;;;;;;;26.10;13.87;;;;;;;5.68;100.00;95189.88;5017562;28;20263;-74
2023/03/23 03:23:51;;;;;;;26.20;13.87;;;;;;;5.78;100.00;95182.72;5019011;28;20225;-74
2023/03/23 03:26:16;;;;;;;27.63;14.13;;;;;;;5.73;100.00;95185.00;5003357;28;20226;-75
2023/03/23 03:28:44;;;;;;;28.53;14.87;;;;;;;5.61;100.00;95187.13;5008149;28;20229;-73
2023/03/23 03:31:09;;;;;;;28.43;14.27;;;;;;;5.54;100.00;95191.31;5046983;28;20237;-74
2023/03/23 03:33:34;;;;;;;26.10;13.90;;;;;;;5.73;100.00;95190.97;5015848;28;20287;-74
2023/03/23 03:36:02;;;;;;;28.20;14.93;;;;;;;5.74;100.00;95189.19;5009687;28;20233;-74
2023/03/23 03:38:27;;;;;;;26.03;14.23;;;;;;;5.70;100.00;95199.13;5008823;28;20237;-74
2023/03/23 03:40:53;;;;;;;31.50;14.90;;;;;;;5.79;100.00;95199.91;5017015;28;20299;-74
2023/03/23 03:43:18;;;;;;;29.87;14.80;;;;;;;5.77;100.00;95194.91;5014400;28;20279;-74
2023/03/23 03:45:44;;;;;;;27.30;13.53;;;;;;;5.85;100.00;95196.72;5015964;28;20233;-74
2023/03/23 03:48:10;;;;;;;27.27;14.03;;;;;;;6.01;100.00;95181.09;5001791;28;20222;-74
2023/03/23 03:50:35;;;;;;;23.87;13.17;;;;;;;6.01;100.00;95189.72;5008288;28;20991;-74
2023/03/23 03:53:01;;;;;;;24.10;12.93;;;;;;;6.21;100.00;95189.34;5005703;28;20256;-74
2023/03/23 03:55:27;;;;;;;23.70;12.93;;;;;;;5.99;100.00;95186.44;5015951;28;20234;-74
2023/03/23 03:57:54;;;;;;;23.20;12.67;;;;;;;6.00;100.00;95184.66;5013915;28;20232;-74
2023/03/23 04:00:20;;;;;;;25.37;12.67;;;;;;;5.70;100.00;95185.31;5032601;28;20256;-74
2023/03/23 04:02:50;;;;;;;27.13;12.80;;;;;;;5.73;100.00;95182.41;5015356;28;20221;-74
2023/03/23 04:05:16;;;;;;;23.87;12.50;;;;;;;5.74;100.00;95184.00;5019741;28;20258;-74
2023/03/23 04:07:41;;;;;;;22.73;12.47;;;;;;;5.73;100.00;95178.00;4991460;28;20334;-74
2023/03/23 04:10:08;;;;;;;22.30;12.20;;;;;;;5.66;100.00;95181.44;4998438;28;20234;-74
2023/03/23 04:12:35;;;;;;;23.37;11.90;;;;;;;5.67;100.00;95175.25;4995524;28;20233;-74
2023/03/23 04:15:01;;;;;;;23.73;12.23;;;;;;;5.73;100.00;95185.78;5014076;28;20230;-74
2023/03/23 04:17:27;;;;;;;22.43;12.10;;;;;;;5.76;100.00;95179.47;5000469;28;20226;-74
2023/03/23 04:19:56;;;;;;;24.50;12.23;;;;;;;5.72;100.00;95175.56;4969124;28;20246;-74
2023/03/23 04:22:24;;;;;;;20.97;11.97;;;;;;;5.48;100.00;95184.19;4981373;28;20269;-74
2023/03/23 04:24:51;;;;;;;23.03;12.10;;;;;;;5.62;100.00;95178.34;5015531;28;20226;-74
2023/03/23 04:27:17;;;;;;;22.20;12.20;;;;;;;5.76;100.00;95180.28;5004538;28;20725;-73
2023/03/23 04:29:48;;;;;;;23.63;12.63;;;;;;;5.87;100.00;95184.38;5019683;28;20234;-74
2023/03/23 04:32:14;;;;;;;22.53;11.87;;;;;;;5.78;100.00;95186.13;4986657;28;20234;-73
2023/03/23 04:34:40;;;;;;;22.63;12.00;;;;;;;5.80;100.00;95188.56;4985562;28;20236;-73
2023/03/23 04:37:06;;;;;;;25.80;12.63;;;;;;;5.85;100.00;95186.31;5011217;28;20233;-73
2023/03/23 04:39:33;;;;;;;23.20;12.03;;;;;;;5.88;100.00;95193.75;5027567;28;20234;-75
2023/03/23 04:42:00;;;;;;;23.30;12.03;;;;;;;5.94;100.00;95186.16;5005684;28;20760;-74
2023/03/23 04:44:27;;;;;;;23.10;12.23;;;;;;;5.94;100.00;95191.34;5016070;28;20233;-74
2023/03/23 04:46:53;;;;;;;28.07;13.27;;;;;;;5.92;100.00;95193.28;5006003;28;20240;-74
2023/03/23 04:49:21;;;;;;;25.10;12.93;;;;;;;5.82;100.00;95200.41;5018978;28;20678;-75
2023/03/23 04:51:46;;;;;;;26.40;12.73;;;;;;;5.94;100.00;95193.94;5002294;28;20237;-75
2023/03/23 04:54:12;;;;;;;25.30;12.90;;;;;;;6.00;100.00;95198.47;5002221;28;20268;-75
2023/03/23 04:56:38;;;;;;;24.47;13.23;;;;;;;6.09;100.00;95196.66;5015886;28;20241;-75
2023/03/23 04:59:03;;;;;;;23.10;12.37;;;;;;;6.15;100.00;95196.00;5024227;28;20229;-75
2023/03/23 05:01:29;;;;;;;25.00;13.20;;;;;;;6.20;100.00;95211.09;5017423;28;20249;-75
2023/03/23 05:03:55;;;;;;;24.03;12.53;;;;;;;6.22;100.00;95203.94;4990887;28;20240;-73
2023/03/23 05:06:21;;;;;;;26.67;13.40;;;;;;;6.23;100.00;95209.00;4976022;28;20839;-73
2023/03/23 05:08:47;;;;;;;29.17;14.73;;;;;;;6.23;100.00;95210.78;4983791;28;20233;-74
2023/03/23 05:11:12;;;;;;;28.13;14.87;;;;;;;6.10;100.00;95208.69;5003842;28;20226;-74
2023/03/23 05:13:39;;;;;;;28.80;14.57;;;;;;;6.24;100.00;95213.19;5033238;28;20304;-74
2023/03/23 05:16:05;;;;;;;29.80;14.47;;;;;;;6.27;100.00;95215.47;5013398;28;20257;-74
2023/03/23 05:18:32;;;;;;;29.70;14.83;;;;;;;6.37;100.00;95205.72;5002555;28;20237;-75
2023/03/23 05:21:02;;;;;;;29.97;15.47;;;;;;;6.45;100.00;95216.06;5007054;28;20782;-74
2023/03/23 05:23:30;;;;;;;30.93;15.47;;;;;;;6.07;100.00;95222.81;5011941;28;20802;-74
2023/03/23 05:25:57;;;;;;;32.37;15.37;;;;;;;6.17;100.00;95222.63;5018681;28;20340;-74
2023/03/23 05:28:22;;;;;;;28.13;15.17;;;;;;;6.37;100.00;95223.09;5011921;28;20234;-74
2023/03/23 05:30:48;;;;;;;27.23;14.70;;;;;;;6.54;100.00;95229.88;5011851;28;20702;-74
2023/03/23 05:33:13;;;;;;;33.53;16.47;;;;;;;6.54;100.00;95225.47;5013777;28;20256;-74
2023/03/23 05:35:39;;;;;;;29.40;16.30;;;;;;;6.49;100.00;95226.97;5018570;28;20229;-74
2023/03/23 05:38:04;;;;;;;37.67;17.87;;;;;;;6.37;100.00;95234.31;5015091;28;20230;-74
2023/03/23 05:40:30;;;;;;;34.77;17.40;;;;;;;6.44;100.00;95231.84;5017237;28;20237;-74
2023/03/23 05:42:58;;;;;;;38.00;17.73;;;;;;;6.50;100.00;95229.38;5012999;28;20619;-73
2023/03/23 05:45:24;;;;;;;41.77;17.90;;;;;;;6.46;100.00;95241.09;5035532;28;20229;-75
2023/03/23 05:47:49;;;;;;;38.33;18.40;;;;;;;6.60;100.00;95243.00;4997744;28;20222;-74
2023/03/23 05:50:16;;;;;;;35.87;17.97;;;;;;;6.66;100.00;95236.34;5016231;28;20229;-73
2023/03/23 05:52:41;;;;;;;38.20;17.57;;;;;;;6.70;100.00;95238.44;5023954;28;20834;-74
2023/03/23 05:55:07;;;;;;;34.53;17.93;;;;;;;6.94;100.00;95242.72;5016075;28;20229;-74
2023/03/23 05:57:33;;;;;;;38.20;18.67;;;;;;;6.82;100.00;95248.47;5016097;28;20290;-74
2023/03/23 05:59:59;;;;;;;40.20;18.40;;;;;;;6.83;100.00;95248.28;5013417;28;20254;-74
2023/03/23 06:02:28;;;;;;;40.90;19.67;;;;;;;6.99;100.00;95250.84;5037156;28;20237;-74
2023/03/23 06:04:57;;;;;;;36.53;20.07;;;;;;;6.91;100.00;95250.03;5029618;28;20226;-74
2023/03/23 06:07:24;;;;;;;43.27;20.77;;;;;;;7.08;100.00;95255.03;5013678;28;20226;-74
2023/03/23 06:09:50;;;;;;;42.10;21.13;;;;;;;7.12;100.00;95255.47;5003032;28;20249;-74
2023/03/23 06:12:19;;;;;;;45.17;22.07;;;;;;;7.04;100.00;95258.94;5010819;28;20317;-73
2023/03/23 06:14:45;;;;;;;48.80;23.03;;;;;;;6.98;100.00;95264.00;5004893;28;20296;-73
2023/03/23 06:17:11;;;;;;;50.43;23.00;;;;;;;6.88;100.00;95259.00;5032159;28;20789;-74
2023/03/23 06:19:36;;;;;;;48.67;22.73;;;;;;;6.88;100.00;95247.81;5009409;28;20232;-74
2023/03/23 06:22:02;;;;;;;48.47;23.47;;;;;;;6.85;100.00;95258.53;5015761;28;20636;-75
2023/03/23 06:24:27;;;;;;;53.53;24.07;;;;;;;6.92;100.00;95260.31;5037769;28;20257;-75
2023/03/23 06:26:53;;;;;;;48.23;23.67;;;;;;;6.79;100.00;95255.63;5035953;28;20686;-75
2023/03/23 06:29:19;;;;;;;50.63;23.93;;;;;;;6.73;100.00;95258.88;5033555;28;20222;-74
2023/03/23 06:31:51;;;;;;;52.90;23.97;;;;;;;6.88;100.00;95264.19;5032458;28;20245;-74
2023/03/23 06:34:16;;;;;;;48.67;24.17;;;;;;;6.94;100.00;95262.72;5035351;28;20606;-74
2023/03/23 06:36:44;;;;;;;51.47;23.90;;;;;;;6.88;100.00;95256.41;5035976;28;20229;-75
2023/03/23 06:39:10;;;;;;;47.90;23.57;;;;;;;7.34;100.00;95260.75;5006903;28;20666;-74
2023/03/23 06:41:35;;;;;;;46.93;22.93;;;;;;;7.81;100.00;95258.00;5016141;28;20800;-74
2023/03/23 06:44:01;;;;;;;49.57;23.20;;;;;;;8.07;100.00;95255.81;5014766;28;20357;-74
2023/03/23 06:46:26;;;;;;;50.23;23.70;;;;;;;8.30;100.00;95265.44;5031580;28;20626;-74
2023/03/23 06:48:52;;;;;;;47.17;22.73;;;;;;;8.63;100.00;95272.78;5008801;28;20238;-74
2023/03/23 06:51:18;;;;;;;46.53;23.90;;;;;;;8.66;97.84;95269.81;5032510;28;20283;-74
2023/03/23 06:53:43;;;;;;;48.50;23.07;;;;;;;8.71;98.87;95279.72;5003874;28;20610;-74
2023/03/23 06:56:10;;;;;;;50.40;24.37;;;;;;;8.66;97.12;95284.66;5019897;28;20230;-74
2023/03/23 06:58:36;;;;;;;47.87;23.77;;;;;;;8.79;98.03;95284.84;5018220;28;20225;-74
2023/03/23 07:01:01;;;;;;;51.60;24.90;;;;;;;8.61;97.38;95281.78;5002052;28;20234;-74
2023/03/23 07:03:31;;;;;;;46.63;22.87;;;;;;;8.79;96.97;95280.44;5030605;28;20329;-75
2023/03/23 07:05:56;;;;;;;46.17;23.87;;;;;;;8.86;96.25;95283.13;5016094;28;20699;-74
2023/03/23 07:08:22;;;;;;;49.47;23.97;;;;;;;9.18;95.79;95285.38;5021900;28;20279;-73
2023/03/23 07:10:49;;;;;;;46.23;23.20;;;;;;;9.21;94.96;95286.81;5031613;28;20241;-73
2023/03/23 07:13:15;;;;;;;49.00;23.20;;;;;;;9.45;93.67;95274.28;5025143;28;20218;-73
2023/03/23 07:15:41;;;;;;;46.70;23.33;;;;;;;9.59;93.01;95280.44;5017771;28;20233;-74
2023/03/23 07:18:06;;;;;;;43.43;22.83;;;;;;;9.53;92.66;95281.16;5008409;28;20229;-74
2023/03/23 07:20:32;;;;;;;46.40;23.20;;;;;;;9.93;92.47;95282.41;5005035;28;20230;-75
2023/03/23 07:22:57;;;;;;;44.60;22.83;;;;;;;10.12;91.01;95279.22;5002985;28;20317;-75
2023/03/23 07:25:23;;;;;;;45.97;23.97;;;;;;;10.17;91.38;95279.47;5001642;28;20300;-76
2023/03/23 07:27:48;;;;;;;44.07;23.17;;;;;;;10.46;89.30;95284.50;5017447;28;20707;-75
2023/03/23 07:30:14;;;;;;;46.77;23.53;;;;;;;10.28;89.84;95278.94;5016769;28;20225;-74
2023/03/23 07:32:41;;;;;;;45.43;22.80;;;;;;;10.46;89.35;95281.88;5005346;28;20225;-75
2023/03/23 07:35:07;;;;;;;48.60;22.80;;;;;;;10.52;89.35;95281.16;5017009;28;20233;-75
2023/03/23 07:37:33;;;;;;;44.83;23.23;;;;;;;11.04;88.00;95279.84;5032318;28;20242;-76
2023/03/23 07:39:59;;;;;;;46.00;23.77;;;;;;;11.12;88.38;95277.09;5002451;28;20318;-75
2023/03/23 07:42:24;;;;;;;49.20;24.33;;;;;;;11.01;86.51;95282.88;5013076;28;20242;-75
2023/03/23 07:44:50;;;;;;;48.63;24.60;;;;;;;11.19;87.90;95288.41;5000519;28;20244;-74
2023/03/23 07:47:17;;;;;;;53.33;23.80;;;;;;;11.10;87.74;95287.78;5015993;28;20252;-75
2023/03/23 07:49:43;;;;;;;48.63;24.50;;;;;;;11.34;87.30;95287.25;5016753;28;20236;-76
2023/03/23 07:52:08;;;;;;;49.60;24.27;;;;;;;11.29;86.13;95289.69;5020419;28;20230;-76
2023/03/23 07:54:34;;;;;;;49.90;24.47;;;;;;;11.40;86.13;95286.50;5007971;28;20237;-76
2023/03/23 07:56:59;;;;;;;50.77;23.83;;;;;;;11.55;88.80;95290.78;5036541;28;20279;-75
2023/03/23 07:59:25;;;;;;;49.43;23.30;;;;;;;11.37;87.12;95286.06;5004635;28;20235;-77
2023/03/23 08:01:51;;;;;;;47.57;23.40;;;;;;;11.33;87.57;95292.72;5029514;28;20230;-76
2023/03/23 08:04:17;;;;;;;49.60;24.83;;;;;;;11.23;86.08;95287.81;5040434;28;20232;-75
2023/03/23 08:06:42;;;;;;;47.13;22.37;;;;;;;11.00;85.38;95294.34;5007091;28;20320;-75
2023/03/23 08:09:08;;;;;;;45.20;22.97;;;;;;;11.20;86.00;95295.28;5011373;28;20595;-75
2023/03/23 08:11:37;;;;;;;43.57;22.50;;;;;;;11.38;85.01;95296.38;5034701;28;20611;-75
2023/03/23 08:14:02;;;;;;;43.90;22.37;;;;;;;11.50;85.41;95294.00;5000207;28;20313;-75
2023/03/23 08:16:28;;;;;;;46.73;23.07;;;;;;;11.26;84.96;95294.50;5022864;28;20241;-74
2023/03/23 08:18:54;;;;;;;45.80;21.97;;;;;;;11.44;86.37;95297.38;5019791;28;20229;-75
2023/03/23 08:21:20;;;;;;;46.93;23.17;;;;;;;11.58;87.57;95288.59;5020789;28;20711;-74
2023/03/23 08:23:46;;;;;;;43.93;23.30;;;;;;;11.54;86.68;95292.59;5031558;28;20695;-75
2023/03/23 08:26:12;;;;;;;54.07;24.00;;;;;;;11.39;85.51;95290.09;5019589;28;20236;-75
2023/03/23 08:28:38;;;;;;;48.17;23.63;;;;;;;11.47;84.04;95292.56;5013735;28;20738;-75
2023/03/23 08:31:11;;;;;;;43.27;21.50;;;;;;;11.58;85.35;95293.84;5014701;28;20230;-74
2023/03/23 08:33:37;;;;;;;38.37;20.80;;;;;;;11.56;84.78;95290.56;4988049;28;20295;-75
2023/03/23 08:36:03;;;;;;;42.67;21.97;;;;;;;11.74;85.45;95287.44;5013230;28;20818;-76
2023/03/23 08:38:29;;;;;;;42.57;21.83;;;;;;;11.68;83.58;95283.78;4996753;28;20261;-75
2023/03/23 08:40:59;;;;;;;40.23;21.13;;;;;;;11.67;82.51;95282.16;5016246;28;20232;-76
2023/03/23 08:43:25;;;;;;;40.80;21.03;;;;;;;11.81;81.98;95283.84;5028850;28;20337;-76
2023/03/23 08:45:51;;;;;;;40.80;21.03;;;;;;;12.05;83.17;95288.53;5000972;28;20277;-75
2023/03/23 08:48:17;;;;;;;35.20;19.27;;;;;;;12.23;82.03;95277.44;5016442;28;20769;-75
2023/03/23 08:50:43;;;;;;;34.67;19.13;;;;;;;12.07;80.05;95283.91;5011802;28;20225;-74
2023/03/23 08:53:08;;;;;;;30.37;16.23;;;;;;;12.38;77.74;95282.50;5007496;28;20603;-76
2023/03/23 08:55:34;;;;;;;14.97;9.10;;;;;;;12.57;70.86;95284.31;5006304;28;20229;-76
2023/03/23 08:58:00;;;;;;;20.80;11.90;;;;;;;12.66;75.27;95285.72;5012059;28;20914;-75
2023/03/23 09:00:27;;;;;;;22.00;12.37;;;;;;;12.60;72.85;95278.69;5021667;28;20956;-75
2023/03/23 09:02:53;;;;;;;21.73;12.20;;;;;;;12.81;73.90;95287.16;5016264;28;20246;-75
2023/03/23 09:05:24;;;;;;;17.67;9.67;;;;;;;12.77;68.94;95285.94;5006742;28;20228;-75
2023/03/23 09:07:50;;;;;;;19.17;10.00;;;;;;;12.81;69.64;95292.41;5019243;28;20214;-75
2023/03/23 09:10:16;;;;;;;16.93;10.03;;;;;;;12.93;68.60;95284.69;5022243;28;20228;-75
2023/03/23 09:12:42;;;;;;;17.97;9.50;;;;;;;12.83;68.94;95285.13;5013774;28;20710;-75
2023/03/23 09:15:09;;;;;;;15.77;8.20;;;;;;;12.90;68.09;95284.31;5016167;28;20651;-75
2023/03/23 09:17:36;;;;;;;14.47;9.17;;;;;;;13.20;68.76;95283.69;5014035;28;20237;-76
2023/03/23 09:20:04;;;;;;;15.53;9.03;;;;;;;13.27;69.90;95289.72;5007470;28;20237;-76
2023/03/23 09:22:29;;;;;;;15.93;9.03;;;;;;;13.13;69.17;95288.16;5016083;28;20229;-76
2023/03/23 09:24:55;;;;;;;15.20;8.80;;;;;;;12.75;69.27;95292.41;5006822;28;20237;-75
2023/03/23 09:27:20;;;;;;;17.67;9.77;;;;;;;12.76;69.72;95288.75;5017589;28;20230;-75
2023/03/23 09:29:48;;;;;;;18.23;10.13;;;;;;;13.22;70.06;95280.84;5015933;28;20226;-75
2023/03/23 09:32:14;;;;;;;17.73;9.93;;;;;;;13.34;68.54;95279.19;5018690;28;20233;-75
2023/03/23 09:34:41;;;;;;;20.53;10.43;;;;;;;13.03;68.95;95277.22;5030213;28;20229;-75
2023/03/23 09:37:06;;;;;;;16.60;9.00;;;;;;;12.69;69.01;95274.84;5028673;28;20265;-75
2023/03/23 09:39:32;;;;;;;14.73;9.00;;;;;;;12.86;71.21;95273.41;5005765;28;20325;-75
2023/03/23 09:42:23;;;;;;;15.77;8.80;;;;;;;13.29;70.17;95269.28;5019606;28;20241;-75
2023/03/23 09:45:02;;;;;;;14.70;7.87;;;;;;;13.60;66.98;95271.19;5012110;28;20221;-74
2023/03/23 09:47:42;;;;;;;15.40;7.63;;;;;;;13.96;67.19;95267.97;5031966;28;20339;-75
2023/03/23 09:50:16;;;;;;;13.20;7.63;;;;;;;13.62;67.88;95268.34;5027966;28;20918;-74
2023/03/23 09:53:05;;;;;;;13.57;7.80;;;;;;;13.14;68.87;95266.09;5005186;28;20241;-75
2023/03/23 09:55:30;;;;;;;12.33;7.90;;;;;;;13.04;66.50;95263.03;5016394;28;20303;-75
2023/03/23 09:58:16;;;;;;;10.63;6.90;;;;;;;13.46;66.45;95267.00;5017038;28;20221;-75
2023/03/23 10:01:00;;;;;;;11.20;7.00;;;;;;;13.22;65.48;95268.50;5033004;28;20241;-75
2023/03/23 10:03:27;;;;;;;12.23;7.93;;;;;;;13.37;64.79;95266.41;5016891;28;20232;-75
2023/03/23 10:05:54;;;;;;;11.93;6.87;;;;;;;13.56;64.52;95259.47;5014269;28;20316;-75
2023/03/23 10:08:26;;;;;;;13.67;7.33;;;;;;;13.77;64.50;95253.09;5009955;28;20734;-74
2023/03/23 10:10:58;;;;;;;14.10;8.30;;;;;;;14.02;64.97;95256.56;5017736;28;20248;-74
2023/03/23 10:13:46;;;;;;;13.77;8.27;;;;;;;14.15;64.19;95264.41;5014742;28;20310;-75
2023/03/23 10:16:17;;;;;;;13.50;8.60;;;;;;;13.58;66.06;95257.44;5024960;28;20233;-75
2023/03/23 10:18:54;;;;;;;15.33;8.57;;;;;;;13.45;65.15;95263.56;4994485;28;20305;-75
2023/03/23 10:21:21;;;;;;;18.00;9.57;;;;;;;13.69;66.47;95253.31;5018814;28;20244;-75
2023/03/23 10:23:47;;;;;;;12.87;8.40;;;;;;;13.75;64.21;95255.13;5020916;28;20373;-75
2023/03/23 10:26:18;;;;;;;14.97;8.80;;;;;;;13.88;64.89;95240.06;5029342;28;20312;-74
2023/03/23 10:28:45;;;;;;;15.17;8.73;;;;;;;14.43;66.82;95241.13;5028827;28;20230;-74
2023/03/23 10:31:18;;;;;;;16.47;8.73;;;;;;;14.20;63.65;95246.16;4995773;28;20369;-75
2023/03/23 10:33:48;;;;;;;16.73;9.83;;;;;;;14.09;64.62;95241.56;5010361;28;20321;-75
2023/03/23 10:36:20;;;;;;;16.50;9.30;;;;;;;13.84;67.55;95245.97;5006527;28;20233;-74
2023/03/23 10:39:01;;;;;;;16.40;9.60;;;;;;;13.77;67.47;95253.09;5009850;28;20355;-74
2023/03/23 10:41:26;;;;;;;13.43;8.90;;;;;;;14.08;64.75;95239.94;5012743;28;20229;-74
2023/03/23 10:43:54;;;;;;;15.63;8.57;;;;;;;14.11;63.53;95244.81;5013674;28;20590;-74
2023/03/23 10:46:31;;;;;;;15.17;9.20;;;;;;;14.14;64.11;95241.72;5015985;28;20750;-76
2023/03/23 10:48:58;;;;;;;15.40;8.70;;;;;;;14.05;64.19;95241.19;5030778;28;20299;-74
2023/03/23 10:51:28;;;;;;;30.33;9.87;;;;;;;14.31;63.76;95234.94;5007444;28;20221;-74
2023/03/23 10:53:58;;;;;;;14.87;8.10;;;;;;;14.47;63.00;95237.03;4995839;28;20231;-74
2023/03/23 10:56:25;;;;;;;11.87;7.87;;;;;;;14.83;62.10;95233.69;5032613;28;20689;-74
2023/03/23 10:58:51;;;;;;;12.00;7.63;;;;;;;15.04;62.25;95237.72;5033856;28;20230;-74
2023/03/23 11:01:18;;;;;;;13.70;8.33;;;;;;;14.44;61.53;95245.38;5018642;28;20323;-74
2023/03/23 11:03:48;;;;;;;13.87;7.67;;;;;;;14.76;61.47;95238.19;5000062;28;20225;-75
2023/03/23 11:06:30;;;;;;;12.17;7.73;;;;;;;14.96;59.61;95233.56;5010760;28;20232;-73
2023/03/23 11:09:01;;;;;;;12.23;7.53;;;;;;;15.37;58.99;95238.97;5030840;28;20228;-75
2023/03/23 11:11:31;;;;;;;13.63;7.70;;;;;;;15.11;58.91;95222.66;5018787;28;20832;-74
2023/03/23 11:14:02;;;;;;;14.17;8.43;;;;;;;14.51;60.19;95225.06;5004845;28;20650;-73
2023/03/23 11:16:35;;;;;;;14.13;8.13;;;;;;;14.32;60.83;95228.66;5016447;28;20638;-75
2023/03/23 11:19:13;;;;;;;13.13;8.03;;;;;;;14.70;61.80;95218.81;5017107;28;20296;-75
2023/03/23 11:21:39;;;;;;;14.60;8.20;;;;;;;14.68;59.59;95217.41;5024740;28;20230;-74
2023/03/23 11:24:05;;;;;;;13.20;7.70;;;;;;;14.71;58.66;95214.34;5004404;28;20218;-74